sensor_id;sensor_type;location;lat;lon;timestamp;P1;durP1;ratioP1;P2;durP2;ratioP2
42616;SDS011;28250;52.320;0.360;2023-10-13T00:00:27;14.40;;;7.80;;
42616;SDS011;28250;52.320;0.360;2023-10-13T00:03:02;12.77;;;8.73;;
42616;SDS011;28250;52.320;0.360;2023-10-13T00:05:31;13.32;;;8.50;;
42616;SDS011;28250;52.320;0.360;2023-10-13T00:08:02;11.68;;;7.45;;
42616;SDS011;28250;52.320;0.360;2023-10-13T00:10:30;12.10;;;7.35;;
42616;SDS011;28250;52.320;0.360;2023-10-13T00:12:58;13.18;;;6.97;;
42616;SDS011;28250;52.320;0.360;2023-10-13T00:15:44;10.40;;;6.32;;
42616;SDS011;28250;52.320;0.360;2023-10-13T00:18:31;14.77;;;6.60;;
42616;SDS011;28250;52.320;0.360;2023-10-13T00:21:07;11.27;;;6.10;;
42616;SDS011;28250;52.320;0.360;2023-10-13T00:23:38;8.25;;;5.47;;
42616;SDS011;28250;52.320;0.360;2023-10-13T00:26:19;8.23;;;5.20;;
42616;SDS011;28250;52.320;0.360;2023-10-13T00:29:00;8.18;;;5.30;;
42616;SDS011;28250;52.320;0.360;2023-10-13T00:34:13;9.05;;;4.35;;
42616;SDS011;28250;52.320;0.360;2023-10-13T00:36:57;7.93;;;3.92;;
42616;SDS011;28250;52.320;0.360;2023-10-13T00:39:53;6.18;;;3.25;;
42616;SDS011;28250;52.320;0.360;2023-10-13T00:42:22;6.65;;;3.60;;
42616;SDS011;28250;52.320;0.360;2023-10-13T00:45:13;4.93;;;2.97;;
42616;SDS011;28250;52.320;0.360;2023-10-13T00:47:42;4.32;;;3.53;;
42616;SDS011;28250;52.320;0.360;2023-10-13T00:50:22;3.70;;;3.10;;
42616;SDS011;28250;52.320;0.360;2023-10-13T00:52:49;4.65;;;2.83;;
42616;SDS011;28250;52.320;0.360;2023-10-13T00:55:20;12.18;;;3.08;;
42616;SDS011;28250;52.320;0.360;2023-10-13T00:57:50;3.35;;;2.53;;
42616;SDS011;28250;52.320;0.360;2023-10-13T01:00:20;2.58;;;2.38;;
42616;SDS011;28250;52.320;0.360;2023-10-13T01:02:54;3.38;;;2.03;;
42616;SDS011;28250;52.320;0.360;2023-10-13T01:05:31;4.25;;;2.58;;
42616;SDS011;28250;52.320;0.360;2023-10-13T01:08:00;4.40;;;2.30;;
42616;SDS011;28250;52.320;0.360;2023-10-13T01:10:27;4.55;;;2.38;;
42616;SDS011;28250;52.320;0.360;2023-10-13T01:12:57;3.05;;;2.33;;
42616;SDS011;28250;52.320;0.360;2023-10-13T01:15:28;3.38;;;1.85;;
42616;SDS011;28250;52.320;0.360;2023-10-13T01:18:08;5.10;;;1.90;;
42616;SDS011;28250;52.320;0.360;2023-10-13T01:20:39;2.00;;;1.73;;
42616;SDS011;28250;52.320;0.360;2023-10-13T01:23:11;3.17;;;1.85;;
42616;SDS011;28250;52.320;0.360;2023-10-13T01:25:45;3.75;;;1.60;;
42616;SDS011;28250;52.320;0.360;2023-10-13T01:28:11;4.05;;;1.85;;
42616;SDS011;28250;52.320;0.360;2023-10-13T01:30:44;4.70;;;2.03;;
42616;SDS011;28250;52.320;0.360;2023-10-13T01:33:17;4.15;;;2.03;;
42616;SDS011;28250;52.320;0.360;2023-10-13T01:35:55;2.58;;;1.90;;
42616;SDS011;28250;52.320;0.360;2023-10-13T01:38:23;2.78;;;1.63;;
42616;SDS011;28250;52.320;0.360;2023-10-13T01:40:53;2.95;;;1.55;;
42616;SDS011;28250;52.320;0.360;2023-10-13T01:43:21;2.17;;;1.90;;
42616;SDS011;28250;52.320;0.360;2023-10-13T01:45:48;3.63;;;1.40;;
42616;SDS011;28250;52.320;0.360;2023-10-13T01:48:15;3.58;;;1.83;;
42616;SDS011;28250;52.320;0.360;2023-10-13T01:50:46;1.63;;;1.33;;
42616;SDS011;28250;52.320;0.360;2023-10-13T01:53:14;2.00;;;1.33;;
42616;SDS011;28250;52.320;0.360;2023-10-13T01:55:43;2.42;;;1.50;;
42616;SDS011;28250;52.320;0.360;2023-10-13T01:58:10;3.15;;;1.20;;
42616;SDS011;28250;52.320;0.360;2023-10-13T02:00:44;2.10;;;1.10;;
42616;SDS011;28250;52.320;0.360;2023-10-13T02:03:15;1.88;;;0.93;;
42616;SDS011;28250;52.320;0.360;2023-10-13T02:05:45;1.33;;;1.20;;
42616;SDS011;28250;52.320;0.360;2023-10-13T02:08:16;2.30;;;0.98;;
42616;SDS011;28250;52.320;0.360;2023-10-13T02:10:49;2.13;;;1.15;;
42616;SDS011;28250;52.320;0.360;2023-10-13T02:13:21;1.95;;;1.10;;
42616;SDS011;28250;52.320;0.360;2023-10-13T02:15:53;2.15;;;1.20;;
42616;SDS011;28250;52.320;0.360;2023-10-13T02:18:22;4.43;;;1.05;;
42616;SDS011;28250;52.320;0.360;2023-10-13T02:20:53;1.42;;;1.15;;
42616;SDS011;28250;52.320;0.360;2023-10-13T02:23:30;2.10;;;1.00;;
42616;SDS011;28250;52.320;0.360;2023-10-13T02:25:59;2.08;;;0.70;;
42616;SDS011;28250;52.320;0.360;2023-10-13T02:28:27;0.60;;;0.40;;
42616;SDS011;28250;52.320;0.360;2023-10-13T02:31:01;0.85;;;0.60;;
42616;SDS011;28250;52.320;0.360;2023-10-13T02:33:29;1.92;;;0.50;;
42616;SDS011;28250;52.320;0.360;2023-10-13T02:35:58;1.25;;;0.50;;
42616;SDS011;28250;52.320;0.360;2023-10-13T02:38:32;0.77;;;0.40;;
42616;SDS011;28250;52.320;0.360;2023-10-13T02:41:11;1.70;;;0.40;;
42616;SDS011;28250;52.320;0.360;2023-10-13T02:43:45;1.45;;;0.50;;
42616;SDS011;28250;52.320;0.360;2023-10-13T02:46:11;1.55;;;0.28;;
42616;SDS011;28250;52.320;0.360;2023-10-13T02:48:41;2.47;;;0.50;;
42616;SDS011;28250;52.320;0.360;2023-10-13T02:51:11;1.30;;;0.35;;
42616;SDS011;28250;52.320;0.360;2023-10-13T02:53:42;1.00;;;0.68;;
42616;SDS011;28250;52.320;0.360;2023-10-13T02:56:12;4.25;;;1.00;;
42616;SDS011;28250;52.320;0.360;2023-10-13T02:58:39;3.13;;;0.90;;
42616;SDS011;28250;52.320;0.360;2023-10-13T03:01:11;7.32;;;1.33;;
42616;SDS011;28250;52.320;0.360;2023-10-13T03:03:43;3.10;;;1.45;;
42616;SDS011;28250;52.320;0.360;2023-10-13T03:06:15;2.80;;;1.48;;
42616;SDS011;28250;52.320;0.360;2023-10-13T03:08:47;3.15;;;1.27;;
42616;SDS011;28250;52.320;0.360;2023-10-13T03:11:14;4.28;;;1.58;;
42616;SDS011;28250;52.320;0.360;2023-10-13T03:13:46;4.30;;;1.73;;
42616;SDS011;28250;52.320;0.360;2023-10-13T03:16:14;4.13;;;1.90;;
42616;SDS011;28250;52.320;0.360;2023-10-13T03:18:46;6.00;;;1.92;;
42616;SDS011;28250;52.320;0.360;2023-10-13T03:21:23;7.85;;;2.28;;
42616;SDS011;28250;52.320;0.360;2023-10-13T03:23:57;7.90;;;2.40;;
42616;SDS011;28250;52.320;0.360;2023-10-13T03:26:32;6.13;;;2.50;;
42616;SDS011;28250;52.320;0.360;2023-10-13T03:29:01;4.78;;;2.25;;
42616;SDS011;28250;52.320;0.360;2023-10-13T03:31:38;4.45;;;2.33;;
42616;SDS011;28250;52.320;0.360;2023-10-13T03:34:05;6.10;;;2.67;;
42616;SDS011;28250;52.320;0.360;2023-10-13T03:36:37;5.75;;;2.35;;
42616;SDS011;28250;52.320;0.360;2023-10-13T03:39:22;7.38;;;2.90;;
42616;SDS011;28250;52.320;0.360;2023-10-13T03:41:55;3.75;;;2.20;;
42616;SDS011;28250;52.320;0.360;2023-10-13T03:44:22;9.30;;;3.10;;
42616;SDS011;28250;52.320;0.360;2023-10-13T03:46:50;5.38;;;2.50;;
42616;SDS011;28250;52.320;0.360;2023-10-13T03:49:19;5.13;;;2.47;;
42616;SDS011;28250;52.320;0.360;2023-10-13T03:51:50;6.90;;;3.13;;
42616;SDS011;28250;52.320;0.360;2023-10-13T03:54:20;5.53;;;2.28;;
42616;SDS011;28250;52.320;0.360;2023-10-13T03:56:46;8.90;;;2.90;;
42616;SDS011;28250;52.320;0.360;2023-10-13T03:59:17;6.78;;;2.67;;
42616;SDS011;28250;52.320;0.360;2023-10-13T04:01:44;7.72;;;2.63;;
42616;SDS011;28250;52.320;0.360;2023-10-13T04:04:13;8.52;;;2.95;;
42616;SDS011;28250;52.320;0.360;2023-10-13T04:06:46;9.10;;;3.35;;
42616;SDS011;28250;52.320;0.360;2023-10-13T04:12:07;6.35;;;3.15;;
42616;SDS011;28250;52.320;0.360;2023-10-13T04:14:40;5.80;;;2.78;;
42616;SDS011;28250;52.320;0.360;2023-10-13T04:17:12;12.23;;;3.33;;
42616;SDS011;28250;52.320;0.360;2023-10-13T04:19:47;9.23;;;3.58;;
42616;SDS011;28250;52.320;0.360;2023-10-13T04:22:36;9.52;;;3.45;;
42616;SDS011;28250;52.320;0.360;2023-10-13T04:25:21;7.88;;;3.75;;
42616;SDS011;28250;52.320;0.360;2023-10-13T04:28:13;7.78;;;3.58;;
42616;SDS011;28250;52.320;0.360;2023-10-13T04:30:46;10.82;;;3.75;;
42616;SDS011;28250;52.320;0.360;2023-10-13T04:33:17;9.45;;;4.32;;
42616;SDS011;28250;52.320;0.360;2023-10-13T04:36:13;8.32;;;3.92;;
42616;SDS011;28250;52.320;0.360;2023-10-13T04:38:52;12.13;;;4.47;;
42616;SDS011;28250;52.320;0.360;2023-10-13T04:41:37;8.77;;;4.50;;
42616;SDS011;28250;52.320;0.360;2023-10-13T04:44:05;13.95;;;4.93;;
42616;SDS011;28250;52.320;0.360;2023-10-13T04:46:50;10.88;;;5.53;;
42616;SDS011;28250;52.320;0.360;2023-10-13T04:49:18;15.10;;;4.90;;
42616;SDS011;28250;52.320;0.360;2023-10-13T04:52:01;11.35;;;5.63;;
42616;SDS011;28250;52.320;0.360;2023-10-13T04:54:36;10.20;;;5.05;;
42616;SDS011;28250;52.320;0.360;2023-10-13T04:57:20;19.58;;;5.20;;
42616;SDS011;28250;52.320;0.360;2023-10-13T04:59:50;17.20;;;6.05;;
42616;SDS011;28250;52.320;0.360;2023-10-13T05:02:39;11.40;;;5.32;;
42616;SDS011;28250;52.320;0.360;2023-10-13T05:05:20;12.88;;;5.45;;
42616;SDS011;28250;52.320;0.360;2023-10-13T05:08:07;10.63;;;5.60;;
42616;SDS011;28250;52.320;0.360;2023-10-13T05:10:52;18.48;;;6.43;;
42616;SDS011;28250;52.320;0.360;2023-10-13T05:13:36;15.60;;;5.50;;
42616;SDS011;28250;52.320;0.360;2023-10-13T05:16:20;16.10;;;6.15;;
42616;SDS011;28250;52.320;0.360;2023-10-13T05:19:05;20.73;;;6.45;;
42616;SDS011;28250;52.320;0.360;2023-10-13T05:21:50;13.70;;;6.03;;
42616;SDS011;28250;52.320;0.360;2023-10-13T05:24:36;15.13;;;6.50;;
42616;SDS011;28250;52.320;0.360;2023-10-13T05:27:20;15.02;;;6.53;;
42616;SDS011;28250;52.320;0.360;2023-10-13T05:30:05;15.20;;;6.75;;
42616;SDS011;28250;52.320;0.360;2023-10-13T05:32:50;14.63;;;6.53;;
42616;SDS011;28250;52.320;0.360;2023-10-13T05:35:35;12.93;;;6.20;;
42616;SDS011;28250;52.320;0.360;2023-10-13T05:38:19;17.95;;;6.28;;
42616;SDS011;28250;52.320;0.360;2023-10-13T05:41:05;16.10;;;6.28;;
42616;SDS011;28250;52.320;0.360;2023-10-13T05:43:50;14.05;;;6.30;;
42616;SDS011;28250;52.320;0.360;2023-10-13T05:46:35;16.30;;;6.05;;
42616;SDS011;28250;52.320;0.360;2023-10-13T05:49:07;14.75;;;6.55;;
42616;SDS011;28250;52.320;0.360;2023-10-13T05:51:34;18.73;;;6.93;;
42616;SDS011;28250;52.320;0.360;2023-10-13T05:54:13;13.40;;;6.00;;
42616;SDS011;28250;52.320;0.360;2023-10-13T05:56:48;19.40;;;6.60;;
42616;SDS011;28250;52.320;0.360;2023-10-13T05:59:35;17.27;;;6.45;;
42616;SDS011;28250;52.320;0.360;2023-10-13T06:02:22;15.90;;;6.65;;
42616;SDS011;28250;52.320;0.360;2023-10-13T06:05:09;16.52;;;6.60;;
42616;SDS011;28250;52.320;0.360;2023-10-13T06:07:56;20.25;;;6.57;;
42616;SDS011;28250;52.320;0.360;2023-10-13T06:10:42;21.17;;;7.25;;
42616;SDS011;28250;52.320;0.360;2023-10-13T06:13:27;20.10;;;6.72;;
42616;SDS011;28250;52.320;0.360;2023-10-13T06:16:13;17.85;;;7.43;;
42616;SDS011;28250;52.320;0.360;2023-10-13T06:21:44;15.95;;;5.65;;
42616;SDS011;28250;52.320;0.360;2023-10-13T06:24:29;19.27;;;6.20;;
42616;SDS011;28250;52.320;0.360;2023-10-13T06:27:14;18.52;;;6.05;;
42616;SDS011;28250;52.320;0.360;2023-10-13T06:29:59;17.02;;;6.40;;
42616;SDS011;28250;52.320;0.360;2023-10-13T06:32:31;15.98;;;6.13;;
42616;SDS011;28250;52.320;0.360;2023-10-13T06:34:58;19.10;;;6.18;;
42616;SDS011;28250;52.320;0.360;2023-10-13T06:37:31;20.63;;;6.13;;
42616;SDS011;28250;52.320;0.360;2023-10-13T06:39:58;14.52;;;5.32;;
42616;SDS011;28250;52.320;0.360;2023-10-13T06:42:39;21.25;;;6.30;;
42616;SDS011;28250;52.320;0.360;2023-10-13T06:45:08;27.38;;;6.22;;
42616;SDS011;28250;52.320;0.360;2023-10-13T06:47:37;18.38;;;6.13;;
42616;SDS011;28250;52.320;0.360;2023-10-13T06:50:10;16.60;;;6.65;;
42616;SDS011;28250;52.320;0.360;2023-10-13T06:52:44;20.27;;;6.35;;
42616;SDS011;28250;52.320;0.360;2023-10-13T06:55:14;16.00;;;5.28;;
42616;SDS011;28250;52.320;0.360;2023-10-13T06:57:49;19.92;;;5.35;;
42616;SDS011;28250;52.320;0.360;2023-10-13T07:00:16;18.15;;;5.53;;
42616;SDS011;28250;52.320;0.360;2023-10-13T07:03:00;23.40;;;5.68;;
42616;SDS011;28250;52.320;0.360;2023-10-13T07:05:37;21.08;;;5.30;;
42616;SDS011;28250;52.320;0.360;2023-10-13T07:08:08;26.65;;;6.10;;
42616;SDS011;28250;52.320;0.360;2023-10-13T07:10:38;19.83;;;5.78;;
42616;SDS011;28250;52.320;0.360;2023-10-13T07:13:28;27.88;;;6.32;;
42616;SDS011;28250;52.320;0.360;2023-10-13T07:15:54;17.90;;;6.60;;
42616;SDS011;28250;52.320;0.360;2023-10-13T07:18:25;22.95;;;6.22;;
42616;SDS011;28250;52.320;0.360;2023-10-13T07:20:58;24.27;;;6.28;;
42616;SDS011;28250;52.320;0.360;2023-10-13T07:23:25;22.63;;;5.78;;
42616;SDS011;28250;52.320;0.360;2023-10-13T07:25:54;20.05;;;6.38;;
42616;SDS011;28250;52.320;0.360;2023-10-13T07:28:29;27.17;;;6.50;;
42616;SDS011;28250;52.320;0.360;2023-10-13T07:31:02;25.52;;;6.53;;
42616;SDS011;28250;52.320;0.360;2023-10-13T07:33:28;22.35;;;6.30;;
42616;SDS011;28250;52.320;0.360;2023-10-13T07:36:02;19.33;;;6.00;;
42616;SDS011;28250;52.320;0.360;2023-10-13T07:38:42;17.13;;;6.40;;
42616;SDS011;28250;52.320;0.360;2023-10-13T07:41:14;24.10;;;5.93;;
42616;SDS011;28250;52.320;0.360;2023-10-13T07:46:08;31.05;;;7.60;;
42616;SDS011;28250;52.320;0.360;2023-10-13T07:48:40;21.08;;;6.45;;
42616;SDS011;28250;52.320;0.360;2023-10-13T07:51:10;23.90;;;5.80;;
42616;SDS011;28250;52.320;0.360;2023-10-13T07:53:42;22.60;;;6.10;;
42616;SDS011;28250;52.320;0.360;2023-10-13T07:56:12;21.08;;;6.10;;
42616;SDS011;28250;52.320;0.360;2023-10-13T07:58:38;23.25;;;5.80;;
42616;SDS011;28250;52.320;0.360;2023-10-13T08:01:16;23.83;;;6.50;;
42616;SDS011;28250;52.320;0.360;2023-10-13T08:03:42;27.42;;;7.35;;
42616;SDS011;28250;52.320;0.360;2023-10-13T08:06:10;22.02;;;5.90;;
42616;SDS011;28250;52.320;0.360;2023-10-13T08:08:43;21.77;;;5.75;;
42616;SDS011;28250;52.320;0.360;2023-10-13T08:11:09;23.77;;;5.70;;
42616;SDS011;28250;52.320;0.360;2023-10-13T08:13:52;19.02;;;5.40;;
42616;SDS011;28250;52.320;0.360;2023-10-13T08:16:36;20.52;;;5.75;;
42616;SDS011;28250;52.320;0.360;2023-10-13T08:19:12;25.13;;;5.75;;
42616;SDS011;28250;52.320;0.360;2023-10-13T08:21:42;20.83;;;6.22;;
42616;SDS011;28250;52.320;0.360;2023-10-13T08:24:23;22.13;;;5.45;;
42616;SDS011;28250;52.320;0.360;2023-10-13T08:27:05;19.17;;;5.18;;
42616;SDS011;28250;52.320;0.360;2023-10-13T08:29:52;18.98;;;6.00;;
42616;SDS011;28250;52.320;0.360;2023-10-13T08:32:20;23.40;;;5.57;;
42616;SDS011;28250;52.320;0.360;2023-10-13T08:34:55;21.58;;;5.47;;
42616;SDS011;28250;52.320;0.360;2023-10-13T08:37:22;19.20;;;5.53;;
42616;SDS011;28250;52.320;0.360;2023-10-13T08:39:55;22.35;;;5.40;;
42616;SDS011;28250;52.320;0.360;2023-10-13T08:42:33;15.85;;;5.47;;
42616;SDS011;28250;52.320;0.360;2023-10-13T08:47:50;17.58;;;4.93;;
42616;SDS011;28250;52.320;0.360;2023-10-13T08:50:36;24.92;;;5.63;;
42616;SDS011;28250;52.320;0.360;2023-10-13T08:58:28;18.27;;;4.20;;
42616;SDS011;28250;52.320;0.360;2023-10-13T09:01:13;18.38;;;4.10;;
42616;SDS011;28250;52.320;0.360;2023-10-13T09:03:56;12.90;;;4.47;;
42616;SDS011;28250;52.320;0.360;2023-10-13T09:06:44;10.20;;;3.38;;
42616;SDS011;28250;52.320;0.360;2023-10-13T09:09:45;12.80;;;3.72;;
42616;SDS011;28250;52.320;0.360;2023-10-13T09:14:52;8.63;;;3.33;;
42616;SDS011;28250;52.320;0.360;2023-10-13T09:17:24;8.88;;;3.50;;
42616;SDS011;28250;52.320;0.360;2023-10-13T09:20:07;8.73;;;3.00;;
42616;SDS011;28250;52.320;0.360;2023-10-13T09:22:47;10.35;;;3.53;;
42616;SDS011;28250;52.320;0.360;2023-10-13T09:25:30;8.63;;;3.00;;
42616;SDS011;28250;52.320;0.360;2023-10-13T09:33:12;11.25;;;3.53;;
42616;SDS011;28250;52.320;0.360;2023-10-13T09:35:43;12.40;;;4.50;;
42616;SDS011;28250;52.320;0.360;2023-10-13T09:38:15;12.65;;;4.20;;
42616;SDS011;28250;52.320;0.360;2023-10-13T09:40:42;9.68;;;3.60;;
42616;SDS011;28250;52.320;0.360;2023-10-13T09:43:16;12.98;;;4.45;;
42616;SDS011;28250;52.320;0.360;2023-10-13T09:45:43;8.25;;;2.88;;
42616;SDS011;28250;52.320;0.360;2023-10-13T09:48:31;6.55;;;3.55;;
42616;SDS011;28250;52.320;0.360;2023-10-13T09:51:06;10.30;;;3.25;;
42616;SDS011;28250;52.320;0.360;2023-10-13T09:56:43;9.55;;;3.83;;
42616;SDS011;28250;52.320;0.360;2023-10-13T09:59:30;10.05;;;3.45;;
42616;SDS011;28250;52.320;0.360;2023-10-13T10:02:04;7.20;;;3.10;;
42616;SDS011;28250;52.320;0.360;2023-10-13T10:04:50;6.13;;;3.60;;
42616;SDS011;28250;52.320;0.360;2023-10-13T10:07:36;5.93;;;3.00;;
42616;SDS011;28250;52.320;0.360;2023-10-13T10:10:05;11.02;;;4.15;;
42616;SDS011;28250;52.320;0.360;2023-10-13T10:12:48;9.55;;;3.63;;
42616;SDS011;28250;52.320;0.360;2023-10-13T10:15:30;8.55;;;3.63;;
42616;SDS011;28250;52.320;0.360;2023-10-13T10:18:01;13.13;;;4.25;;
42616;SDS011;28250;52.320;0.360;2023-10-13T10:20:29;8.10;;;4.50;;
42616;SDS011;28250;52.320;0.360;2023-10-13T10:23:29;10.30;;;3.72;;
42616;SDS011;28250;52.320;0.360;2023-10-13T10:26:13;11.52;;;3.78;;
42616;SDS011;28250;52.320;0.360;2023-10-13T10:28:45;9.20;;;4.15;;
42616;SDS011;28250;52.320;0.360;2023-10-13T10:31:12;10.65;;;4.28;;
42616;SDS011;28250;52.320;0.360;2023-10-13T10:33:45;9.90;;;3.80;;
42616;SDS011;28250;52.320;0.360;2023-10-13T10:36:29;9.38;;;4.00;;
42616;SDS011;28250;52.320;0.360;2023-10-13T10:38:56;11.50;;;4.10;;
42616;SDS011;28250;52.320;0.360;2023-10-13T10:41:26;12.65;;;4.13;;
42616;SDS011;28250;52.320;0.360;2023-10-13T10:44:09;17.15;;;4.50;;
42616;SDS011;28250;52.320;0.360;2023-10-13T10:46:42;14.95;;;4.30;;
42616;SDS011;28250;52.320;0.360;2023-10-13T10:49:20;12.15;;;5.00;;
42616;SDS011;28250;52.320;0.360;2023-10-13T10:51:59;10.88;;;4.85;;
42616;SDS011;28250;52.320;0.360;2023-10-13T10:54:33;12.32;;;4.03;;
42616;SDS011;28250;52.320;0.360;2023-10-13T10:56:59;12.75;;;4.00;;
42616;SDS011;28250;52.320;0.360;2023-10-13T10:59:42;10.45;;;4.00;;
42616;SDS011;28250;52.320;0.360;2023-10-13T11:02:09;12.25;;;4.25;;
42616;SDS011;28250;52.320;0.360;2023-10-13T11:04:40;13.15;;;4.28;;
42616;SDS011;28250;52.320;0.360;2023-10-13T11:07:25;9.63;;;4.07;;
42616;SDS011;28250;52.320;0.360;2023-10-13T11:12:31;8.90;;;3.58;;
42616;SDS011;28250;52.320;0.360;2023-10-13T11:15:02;9.77;;;3.60;;
42616;SDS011;28250;52.320;0.360;2023-10-13T11:17:39;11.63;;;3.55;;
42616;SDS011;28250;52.320;0.360;2023-10-13T11:20:13;11.73;;;3.40;;
42616;SDS011;28250;52.320;0.360;2023-10-13T11:22:46;8.90;;;3.30;;
42616;SDS011;28250;52.320;0.360;2023-10-13T11:25:20;16.00;;;3.80;;
42616;SDS011;28250;52.320;0.360;2023-10-13T11:28:13;10.20;;;3.67;;
42616;SDS011;28250;52.320;0.360;2023-10-13T11:30:46;9.80;;;3.40;;
42616;SDS011;28250;52.320;0.360;2023-10-13T11:33:16;9.55;;;3.15;;
42616;SDS011;28250;52.320;0.360;2023-10-13T11:35:44;10.45;;;2.85;;
42616;SDS011;28250;52.320;0.360;2023-10-13T11:38:20;7.68;;;2.78;;
42616;SDS011;28250;52.320;0.360;2023-10-13T11:43:43;9.57;;;3.05;;
42616;SDS011;28250;52.320;0.360;2023-10-13T11:46:20;11.82;;;3.55;;
42616;SDS011;28250;52.320;0.360;2023-10-13T11:49:00;10.30;;;3.13;;
42616;SDS011;28250;52.320;0.360;2023-10-13T11:51:44;8.15;;;2.80;;
42616;SDS011;28250;52.320;0.360;2023-10-13T11:54:18;5.80;;;2.60;;
42616;SDS011;28250;52.320;0.360;2023-10-13T11:56:47;7.95;;;2.92;;
42616;SDS011;28250;52.320;0.360;2023-10-13T11:59:14;8.65;;;3.03;;
42616;SDS011;28250;52.320;0.360;2023-10-13T12:01:43;10.32;;;3.17;;
42616;SDS011;28250;52.320;0.360;2023-10-13T12:04:31;8.65;;;2.83;;
42616;SDS011;28250;52.320;0.360;2023-10-13T12:06:58;11.60;;;3.30;;
42616;SDS011;28250;52.320;0.360;2023-10-13T12:09:42;16.33;;;3.17;;
42616;SDS011;28250;52.320;0.360;2023-10-13T12:12:23;8.40;;;2.80;;
42616;SDS011;28250;52.320;0.360;2023-10-13T12:14:52;11.43;;;3.00;;
42616;SDS011;28250;52.320;0.360;2023-10-13T12:17:22;10.00;;;2.63;;
42616;SDS011;28250;52.320;0.360;2023-10-13T12:19:57;9.30;;;3.17;;
42616;SDS011;28250;52.320;0.360;2023-10-13T12:24:56;11.63;;;3.45;;
42616;SDS011;28250;52.320;0.360;2023-10-13T12:27:22;10.77;;;3.70;;
42616;SDS011;28250;52.320;0.360;2023-10-13T12:29:49;11.23;;;3.15;;
42616;SDS011;28250;52.320;0.360;2023-10-13T12:32:17;8.60;;;3.22;;
42616;SDS011;28250;52.320;0.360;2023-10-13T12:34:56;12.30;;;3.17;;
42616;SDS011;28250;52.320;0.360;2023-10-13T12:37:26;10.85;;;3.30;;
42616;SDS011;28250;52.320;0.360;2023-10-13T12:40:07;10.07;;;2.95;;
42616;SDS011;28250;52.320;0.360;2023-10-13T12:42:53;9.93;;;3.38;;
42616;SDS011;28250;52.320;0.360;2023-10-13T12:45:39;12.43;;;3.63;;
42616;SDS011;28250;52.320;0.360;2023-10-13T12:48:24;11.93;;;3.08;;
42616;SDS011;28250;52.320;0.360;2023-10-13T12:51:09;7.57;;;3.22;;
42616;SDS011;28250;52.320;0.360;2023-10-13T12:53:54;8.80;;;3.30;;
42616;SDS011;28250;52.320;0.360;2023-10-13T12:56:30;11.90;;;3.17;;
42616;SDS011;28250;52.320;0.360;2023-10-13T12:58:56;10.70;;;3.25;;
42616;SDS011;28250;52.320;0.360;2023-10-13T13:01:22;10.35;;;2.85;;
42616;SDS011;28250;52.320;0.360;2023-10-13T13:03:52;8.80;;;3.40;;
42616;SDS011;28250;52.320;0.360;2023-10-13T13:06:22;6.97;;;3.20;;
42616;SDS011;28250;52.320;0.360;2023-10-13T13:08:58;10.23;;;3.03;;
42616;SDS011;28250;52.320;0.360;2023-10-13T13:11:25;11.13;;;3.95;;
42616;SDS011;28250;52.320;0.360;2023-10-13T13:13:55;12.63;;;3.40;;
42616;SDS011;28250;52.320;0.360;2023-10-13T13:16:21;10.05;;;3.35;;
42616;SDS011;28250;52.320;0.360;2023-10-13T13:18:50;9.75;;;3.40;;
42616;SDS011;28250;52.320;0.360;2023-10-13T13:21:16;12.35;;;4.00;;
42616;SDS011;28250;52.320;0.360;2023-10-13T13:23:52;12.38;;;2.92;;
42616;SDS011;28250;52.320;0.360;2023-10-13T13:26:22;10.95;;;3.30;;
42616;SDS011;28250;52.320;0.360;2023-10-13T13:28:49;10.02;;;3.13;;
42616;SDS011;28250;52.320;0.360;2023-10-13T13:31:19;8.52;;;3.05;;
42616;SDS011;28250;52.320;0.360;2023-10-13T13:33:51;9.10;;;2.50;;
42616;SDS011;28250;52.320;0.360;2023-10-13T13:36:18;14.27;;;3.40;;
42616;SDS011;28250;52.320;0.360;2023-10-13T13:38:45;9.38;;;3.17;;
42616;SDS011;28250;52.320;0.360;2023-10-13T13:41:12;7.57;;;2.92;;
42616;SDS011;28250;52.320;0.360;2023-10-13T13:43:45;14.45;;;3.88;;
42616;SDS011;28250;52.320;0.360;2023-10-13T13:46:16;12.63;;;3.90;;
42616;SDS011;28250;52.320;0.360;2023-10-13T13:48:43;10.52;;;3.30;;
42616;SDS011;28250;52.320;0.360;2023-10-13T13:51:13;13.00;;;4.05;;
42616;SDS011;28250;52.320;0.360;2023-10-13T13:53:40;12.88;;;3.80;;
42616;SDS011;28250;52.320;0.360;2023-10-13T13:56:10;13.27;;;3.53;;
42616;SDS011;28250;52.320;0.360;2023-10-13T13:58:44;10.10;;;3.60;;
42616;SDS011;28250;52.320;0.360;2023-10-13T14:01:13;10.50;;;3.38;;
42616;SDS011;28250;52.320;0.360;2023-10-13T14:03:40;15.73;;;4.10;;
42616;SDS011;28250;52.320;0.360;2023-10-13T14:06:14;11.13;;;3.70;;
42616;SDS011;28250;52.320;0.360;2023-10-13T14:08:57;13.35;;;3.65;;
42616;SDS011;28250;52.320;0.360;2023-10-13T14:11:29;10.52;;;2.97;;
42616;SDS011;28250;52.320;0.360;2023-10-13T14:14:06;8.57;;;3.30;;
42616;SDS011;28250;52.320;0.360;2023-10-13T14:17:06;12.52;;;4.03;;
42616;SDS011;28250;52.320;0.360;2023-10-13T14:19:33;13.35;;;3.33;;
42616;SDS011;28250;52.320;0.360;2023-10-13T14:22:01;13.32;;;3.53;;
42616;SDS011;28250;52.320;0.360;2023-10-13T14:24:34;12.70;;;3.72;;
42616;SDS011;28250;52.320;0.360;2023-10-13T14:27:09;10.30;;;3.75;;
42616;SDS011;28250;52.320;0.360;2023-10-13T14:29:41;13.75;;;3.78;;
42616;SDS011;28250;52.320;0.360;2023-10-13T14:32:10;13.30;;;3.13;;
42616;SDS011;28250;52.320;0.360;2023-10-13T14:34:39;11.02;;;3.13;;
42616;SDS011;28250;52.320;0.360;2023-10-13T14:39:32;12.27;;;3.53;;
42616;SDS011;28250;52.320;0.360;2023-10-13T14:42:01;13.15;;;2.97;;
42616;SDS011;28250;52.320;0.360;2023-10-13T14:44:34;15.68;;;3.70;;
42616;SDS011;28250;52.320;0.360;2023-10-13T14:47:02;13.57;;;3.70;;
42616;SDS011;28250;52.320;0.360;2023-10-13T14:49:30;9.68;;;2.72;;
42616;SDS011;28250;52.320;0.360;2023-10-13T14:51:56;12.68;;;4.00;;
42616;SDS011;28250;52.320;0.360;2023-10-13T14:54:25;10.50;;;3.40;;
42616;SDS011;28250;52.320;0.360;2023-10-13T14:57:00;11.63;;;3.05;;
42616;SDS011;28250;52.320;0.360;2023-10-13T15:02:01;13.20;;;2.95;;
42616;SDS011;28250;52.320;0.360;2023-10-13T15:04:28;10.45;;;2.28;;
42616;SDS011;28250;52.320;0.360;2023-10-13T15:06:58;11.50;;;2.45;;
42616;SDS011;28250;52.320;0.360;2023-10-13T15:09:28;9.52;;;2.30;;
42616;SDS011;28250;52.320;0.360;2023-10-13T15:11:55;6.70;;;2.80;;
42616;SDS011;28250;52.320;0.360;2023-10-13T15:14:21;10.85;;;2.63;;
42616;SDS011;28250;52.320;0.360;2023-10-13T15:16:48;10.33;;;2.07;;
42616;SDS011;28250;52.320;0.360;2023-10-13T15:19:15;8.18;;;2.10;;
42616;SDS011;28250;52.320;0.360;2023-10-13T15:21:44;9.25;;;2.65;;
42616;SDS011;28250;52.320;0.360;2023-10-13T15:24:14;8.60;;;2.35;;
42616;SDS011;28250;52.320;0.360;2023-10-13T15:29:17;15.02;;;2.13;;
42616;SDS011;28250;52.320;0.360;2023-10-13T15:31:50;12.27;;;2.65;;
42616;SDS011;28250;52.320;0.360;2023-10-13T15:34:26;12.48;;;2.60;;
42616;SDS011;28250;52.320;0.360;2023-10-13T15:36:53;10.57;;;2.28;;
42616;SDS011;28250;52.320;0.360;2023-10-13T15:39:21;9.57;;;2.50;;
42616;SDS011;28250;52.320;0.360;2023-10-13T15:41:56;11.50;;;2.50;;
42616;SDS011;28250;52.320;0.360;2023-10-13T15:44:27;10.95;;;2.65;;
42616;SDS011;28250;52.320;0.360;2023-10-13T15:46:57;9.95;;;2.30;;
42616;SDS011;28250;52.320;0.360;2023-10-13T15:49:24;11.30;;;2.17;;
42616;SDS011;28250;52.320;0.360;2023-10-13T15:51:53;15.45;;;2.60;;
42616;SDS011;28250;52.320;0.360;2023-10-13T15:54:23;5.90;;;1.55;;
42616;SDS011;28250;52.320;0.360;2023-10-13T15:56:49;10.10;;;2.28;;
42616;SDS011;28250;52.320;0.360;2023-10-13T15:59:16;7.18;;;1.30;;
42616;SDS011;28250;52.320;0.360;2023-10-13T16:01:42;5.68;;;1.58;;
42616;SDS011;28250;52.320;0.360;2023-10-13T16:04:12;7.07;;;1.67;;
42616;SDS011;28250;52.320;0.360;2023-10-13T16:06:41;6.43;;;1.63;;